createdAt,value
2023-04-30T00:02:27.980Z,15.80
2023-04-30T00:04:58.717Z,16.20
2023-04-30T00:07:29.380Z,16.70
2023-04-30T00:10:00.151Z,16.40
2023-04-30T00:12:30.930Z,16.40
2023-04-30T00:15:01.722Z,17.00
2023-04-30T00:17:33.137Z,16.90
2023-04-30T00:20:04.130Z,16.60
2023-04-30T00:22:37.341Z,15.50
2023-04-30T00:25:09.558Z,16.30
2023-04-30T00:27:41.111Z,16.50
2023-04-30T00:30:13.472Z,18.20
2023-04-30T00:32:45.892Z,17.20
2023-04-30T00:35:17.058Z,17.70
2023-04-30T00:37:47.806Z,16.20
2023-04-30T00:40:18.924Z,17.50
2023-04-30T00:42:49.872Z,16.70
2023-04-30T00:45:22.221Z,17.40
2023-04-30T00:47:53.178Z,16.50
2023-04-30T00:50:24.864Z,16.80
2023-04-30T00:52:55.658Z,17.60
2023-04-30T00:55:27.662Z,19.10
2023-04-30T00:57:59.089Z,17.10
2023-04-30T01:00:30.619Z,18.00
2023-04-30T01:03:01.646Z,17.50
2023-04-30T01:05:32.914Z,18.40
2023-04-30T01:08:03.730Z,18.80
2023-04-30T01:10:43.405Z,18.30
2023-04-30T01:13:18.964Z,18.40
2023-04-30T01:15:56.353Z,18.20
2023-04-30T01:18:34.751Z,18.10
2023-04-30T01:21:07.507Z,18.70
2023-04-30T01:23:55.962Z,19.30
2023-04-30T01:26:46.724Z,18.70
2023-04-30T01:29:20.735Z,18.70
2023-04-30T01:31:51.876Z,17.70
2023-04-30T01:34:22.680Z,18.40
2023-04-30T01:37:05.137Z,19.30
2023-04-30T01:39:49.776Z,19.50
2023-04-30T01:42:24.190Z,18.60
2023-04-30T01:45:16.926Z,19.60
2023-04-30T01:47:54.053Z,18.20
2023-04-30T01:50:35.067Z,17.80
2023-04-30T01:53:12.860Z,19.30
2023-04-30T01:56:26.938Z,18.10
2023-04-30T01:59:04.130Z,17.00
2023-04-30T02:01:36.538Z,16.30
2023-04-30T02:04:21.559Z,15.40
2023-04-30T02:07:03.488Z,16.70
2023-04-30T02:09:35.742Z,15.90
2023-04-30T02:12:10.184Z,15.80
2023-04-30T02:14:41.086Z,15.20
2023-04-30T02:17:35.265Z,15.10
2023-04-30T02:20:14.085Z,15.60
2023-04-30T02:22:45.729Z,14.80
2023-04-30T02:25:16.673Z,14.00
2023-04-30T02:27:47.400Z,14.40
2023-04-30T02:30:19.913Z,14.20
2023-04-30T02:32:51.368Z,12.90
2023-04-30T02:35:22.615Z,12.90
2023-04-30T02:37:53.970Z,13.40
2023-04-30T02:40:24.750Z,12.00
2023-04-30T02:42:56.935Z,12.50
2023-04-30T02:45:27.953Z,12.90
2023-04-30T02:47:59.510Z,12.70
2023-04-30T02:50:30.348Z,13.10
2023-04-30T02:53:01.151Z,13.10
2023-04-30T02:55:32.928Z,12.50
2023-04-30T02:58:03.785Z,13.70
2023-04-30T03:00:34.575Z,13.70
2023-04-30T03:03:05.455Z,14.10
2023-04-30T03:05:37.605Z,12.10
2023-04-30T03:08:08.402Z,13.60
2023-04-30T03:10:39.089Z,12.00
2023-04-30T03:13:09.955Z,11.70
2023-04-30T03:15:40.935Z,12.30
2023-04-30T03:18:12.761Z,12.30
2023-04-30T03:20:43.726Z,12.70
2023-04-30T03:23:15.106Z,18.10
2023-04-30T03:25:45.929Z,12.80
2023-04-30T03:28:16.806Z,10.80
2023-04-30T03:30:47.538Z,11.40
2023-04-30T03:33:18.414Z,11.50
2023-04-30T03:35:50.624Z,13.20
2023-04-30T03:38:21.816Z,12.20
2023-04-30T03:40:52.630Z,12.10
2023-04-30T03:43:23.370Z,12.90
2023-04-30T03:45:54.159Z,11.50
2023-04-30T03:48:27.163Z,11.10
2023-04-30T03:50:57.980Z,10.90
2023-04-30T03:53:28.777Z,11.20
2023-04-30T03:56:00.228Z,10.90
2023-04-30T03:58:31.212Z,10.10
2023-04-30T04:01:02.026Z,10.10
2023-04-30T04:03:35.331Z,13.60
2023-04-30T04:06:06.499Z,8.80
2023-04-30T04:08:37.590Z,7.80
2023-04-30T04:11:08.774Z,7.20
2023-04-30T04:13:40.108Z,6.70
2023-04-30T04:16:11.396Z,7.00
2023-04-30T04:18:42.483Z,6.90
2023-04-30T04:21:13.199Z,7.30
2023-04-30T04:23:44.069Z,6.60
2023-04-30T04:26:15.075Z,6.40
2023-04-30T04:28:45.881Z,6.20
2023-04-30T04:31:16.860Z,7.70
2023-04-30T04:33:47.670Z,12.40
2023-04-30T04:36:18.516Z,19.60
2023-04-30T04:38:52.809Z,8.40
2023-04-30T04:41:25.502Z,8.20
2023-04-30T04:43:56.847Z,8.20
2023-04-30T04:46:29.898Z,7.90
2023-04-30T04:49:01.197Z,7.60
2023-04-30T04:51:32.293Z,8.20
2023-04-30T04:54:03.661Z,6.70
2023-04-30T04:56:34.677Z,8.00
2023-04-30T04:59:05.384Z,8.30
2023-04-30T05:01:36.574Z,8.00
2023-04-30T05:04:09.540Z,8.00
2023-04-30T05:06:40.934Z,14.40
2023-04-30T05:09:11.956Z,8.30
2023-04-30T05:11:43.943Z,8.90
2023-04-30T05:14:14.605Z,9.90
2023-04-30T05:16:45.849Z,10.10
2023-04-30T05:19:16.597Z,9.30
2023-04-30T05:21:47.303Z,9.90
2023-04-30T05:24:18.051Z,11.40
2023-04-30T05:26:48.823Z,11.20
2023-04-30T05:29:19.486Z,10.20
2023-04-30T05:31:50.318Z,9.90
2023-04-30T05:34:21.356Z,9.90
2023-04-30T05:36:52.419Z,11.20
2023-04-30T05:39:23.091Z,10.90
2023-04-30T05:41:53.833Z,12.70
2023-04-30T05:44:24.485Z,12.30
2023-04-30T05:46:55.143Z,11.40
2023-04-30T05:49:25.976Z,11.20
2023-04-30T05:51:56.696Z,12.20
2023-04-30T05:54:27.414Z,27.10
2023-04-30T05:56:58.247Z,14.70
2023-04-30T05:59:29.052Z,13.50
2023-04-30T06:01:59.933Z,11.50
2023-04-30T06:04:31.171Z,12.10
2023-04-30T06:07:03.761Z,12.20
2023-04-30T06:09:34.580Z,13.20
2023-04-30T06:12:05.801Z,12.00
2023-04-30T06:14:43.581Z,11.90
2023-04-30T06:17:14.296Z,11.20
2023-04-30T06:19:47.344Z,12.70
2023-04-30T06:22:20.072Z,11.90
2023-04-30T06:24:50.764Z,10.80
2023-04-30T06:27:21.478Z,10.20
2023-04-30T06:29:52.363Z,9.70
2023-04-30T06:32:23.362Z,9.30
2023-04-30T06:34:54.160Z,10.40
2023-04-30T06:37:24.914Z,10.90
2023-04-30T06:39:55.776Z,10.10
2023-04-30T06:42:26.792Z,10.80
2023-04-30T06:44:57.535Z,9.80
2023-04-30T06:47:28.482Z,9.30
2023-04-30T06:50:01.804Z,9.00
2023-04-30T06:52:33.248Z,7.60
2023-04-30T06:55:03.928Z,7.30
2023-04-30T06:57:34.755Z,6.50
2023-04-30T07:00:06.532Z,5.90
2023-04-30T07:02:37.630Z,5.10
2023-04-30T07:05:13.253Z,4.80
2023-04-30T07:07:46.668Z,4.50
2023-04-30T07:10:17.462Z,5.10
2023-04-30T07:12:51.142Z,4.60
2023-04-30T07:15:22.013Z,4.70
2023-04-30T07:17:52.885Z,5.70
2023-04-30T07:20:23.731Z,5.40
2023-04-30T07:22:55.710Z,5.20
2023-04-30T07:25:26.476Z,4.50
2023-04-30T07:27:57.754Z,3.50
2023-04-30T07:30:28.625Z,3.70
2023-04-30T07:32:59.364Z,3.50
2023-04-30T07:35:40.202Z,3.70
2023-04-30T07:38:11.135Z,3.50
2023-04-30T07:40:42.024Z,4.10
2023-04-30T07:43:13.081Z,3.40
2023-04-30T07:45:44.659Z,3.60
2023-04-30T07:48:15.809Z,4.10
2023-04-30T07:50:49.550Z,3.80
2023-04-30T07:53:21.483Z,4.00
2023-04-30T07:55:53.553Z,3.60
2023-04-30T07:58:24.242Z,3.40
2023-04-30T08:00:55.131Z,3.30
2023-04-30T08:03:25.980Z,6.50
2023-04-30T08:05:56.934Z,3.80
2023-04-30T08:08:28.113Z,3.40
2023-04-30T08:11:01.869Z,3.80
2023-04-30T08:13:32.606Z,3.80
2023-04-30T08:16:03.370Z,3.80
2023-04-30T08:18:34.148Z,3.60
2023-04-30T08:21:04.976Z,4.10
2023-04-30T08:23:36.066Z,4.00
2023-04-30T08:26:06.941Z,3.50
2023-04-30T08:28:37.738Z,3.20
2023-04-30T08:31:09.415Z,3.00
2023-04-30T08:33:41.243Z,3.00
2023-04-30T08:36:12.156Z,3.40
2023-04-30T08:38:43.494Z,3.30
2023-04-30T08:41:17.819Z,3.70
2023-04-30T08:43:58.154Z,3.50
2023-04-30T08:46:31.140Z,3.60
2023-04-30T08:49:02.488Z,2.90
2023-04-30T08:51:42.601Z,3.30
2023-04-30T08:54:15.547Z,3.10
2023-04-30T08:56:47.695Z,3.00
2023-04-30T08:59:18.439Z,3.00
2023-04-30T09:01:53.070Z,3.20
2023-04-30T09:04:31.123Z,2.80
2023-04-30T09:07:05.579Z,2.70
2023-04-30T09:09:44.032Z,2.80
2023-04-30T09:12:20.217Z,2.90
2023-04-30T09:15:05.208Z,3.10
2023-04-30T09:17:38.386Z,2.50
2023-04-30T09:20:14.455Z,2.80
2023-04-30T09:22:45.380Z,2.70
2023-04-30T09:25:17.000Z,2.70
2023-04-30T09:28:08.416Z,2.50
2023-04-30T09:30:45.271Z,2.40
2023-04-30T09:33:40.191Z,2.90
2023-04-30T09:41:07.078Z,2.50
2023-04-30T09:43:48.100Z,2.60
2023-04-30T09:46:33.715Z,2.90
2023-04-30T09:49:13.611Z,2.60
2023-04-30T09:52:01.500Z,2.40
2023-04-30T09:54:34.695Z,3.20
2023-04-30T09:57:10.732Z,2.90
2023-04-30T09:59:47.279Z,2.70
2023-04-30T10:02:20.335Z,2.70
2023-04-30T10:04:57.401Z,2.60
2023-04-30T10:07:40.382Z,2.30
2023-04-30T10:13:16.089Z,2.60
2023-04-30T10:16:23.128Z,2.50
2023-04-30T10:18:55.998Z,2.10
2023-04-30T10:21:28.299Z,2.40
2023-04-30T10:23:59.540Z,2.20
2023-04-30T10:26:34.554Z,1.90
2023-04-30T10:29:07.084Z,2.10
2023-04-30T10:34:16.641Z,1.60
2023-04-30T10:36:53.405Z,1.90
2023-04-30T10:39:27.728Z,2.00
2023-04-30T10:42:14.028Z,2.20
2023-04-30T10:44:45.273Z,1.40
2023-04-30T10:47:19.263Z,2.00
2023-04-30T10:49:54.349Z,2.30
2023-04-30T10:52:31.730Z,1.70
2023-04-30T10:55:08.097Z,2.00
2023-04-30T10:57:48.360Z,1.90
2023-04-30T11:00:27.080Z,1.60
2023-04-30T11:03:15.171Z,1.80
2023-04-30T11:05:48.458Z,1.90
2023-04-30T11:08:21.528Z,2.10
2023-04-30T11:11:01.833Z,2.00
2023-04-30T11:13:46.428Z,2.00
2023-04-30T11:16:42.868Z,1.90
2023-04-30T11:19:17.303Z,1.80
2023-04-30T11:27:43.817Z,2.10
2023-04-30T11:33:41.944Z,2.50
2023-04-30T11:36:15.629Z,2.00
2023-04-30T11:38:48.050Z,1.80
2023-04-30T11:41:30.404Z,2.20
2023-04-30T11:44:04.076Z,1.80
2023-04-30T11:46:39.757Z,2.00
2023-04-30T11:49:13.666Z,2.00
2023-04-30T11:51:55.860Z,2.20
2023-04-30T11:54:26.651Z,2.30
2023-04-30T11:57:04.359Z,2.60
2023-04-30T11:59:45.622Z,1.90
2023-04-30T12:02:22.165Z,2.00
2023-04-30T12:04:54.265Z,2.30
2023-04-30T12:07:25.185Z,52.80
2023-04-30T12:09:57.245Z,15.60
2023-04-30T12:12:37.946Z,4.20
2023-04-30T12:15:23.206Z,2.80
2023-04-30T12:18:00.316Z,2.90
2023-04-30T12:20:37.359Z,3.20
2023-04-30T12:23:08.507Z,2.60
2023-04-30T12:25:45.906Z,2.10
2023-04-30T12:28:27.738Z,2.10
2023-04-30T12:31:12.845Z,3.00
2023-04-30T12:33:44.282Z,2.20
2023-04-30T12:36:15.944Z,1.60
2023-04-30T12:38:51.704Z,1.90
2023-04-30T12:41:37.920Z,1.90
2023-04-30T12:44:20.147Z,1.90
2023-04-30T12:47:15.819Z,2.00
2023-04-30T12:49:53.908Z,2.30
2023-04-30T12:52:29.308Z,2.00
2023-04-30T12:55:27.073Z,1.60
2023-04-30T12:58:24.451Z,2.20
2023-04-30T13:00:58.019Z,1.60
2023-04-30T13:03:31.639Z,1.60
2023-04-30T13:06:04.785Z,1.70
2023-04-30T13:08:42.616Z,2.10
2023-04-30T13:13:50.728Z,2.10
2023-04-30T13:16:21.583Z,1.80
2023-04-30T13:18:52.410Z,2.00
2023-04-30T13:21:23.189Z,2.10
2023-04-30T13:23:55.729Z,2.10
2023-04-30T13:26:28.552Z,1.80
2023-04-30T13:29:00.310Z,1.50
2023-04-30T13:31:31.173Z,1.60
2023-04-30T13:34:02.064Z,2.20
2023-04-30T13:36:33.397Z,1.80
2023-04-30T13:39:04.896Z,1.70
2023-04-30T13:41:35.634Z,1.90
2023-04-30T13:44:06.468Z,1.90
2023-04-30T13:46:38.534Z,1.80
2023-04-30T13:49:10.718Z,1.70
2023-04-30T13:51:41.555Z,2.10
2023-04-30T13:54:13.164Z,1.60
2023-04-30T13:56:45.848Z,1.60
2023-04-30T13:59:20.653Z,1.90
2023-04-30T14:01:51.403Z,2.00
2023-04-30T14:04:22.264Z,1.70
2023-04-30T14:06:56.626Z,1.90
2023-04-30T14:09:27.474Z,1.50
2023-04-30T14:11:59.139Z,2.30
2023-04-30T14:14:31.705Z,1.50
2023-04-30T14:17:02.620Z,2.50
2023-04-30T14:19:33.518Z,1.70
2023-04-30T14:22:04.482Z,2.00
2023-04-30T14:24:35.365Z,1.60
2023-04-30T14:27:08.302Z,1.70
2023-04-30T14:29:39.112Z,1.70
2023-04-30T14:32:10.311Z,3.80
2023-04-30T14:34:41.101Z,2.40
2023-04-30T14:37:15.630Z,2.50
2023-04-30T14:39:46.431Z,2.50
2023-04-30T14:42:22.197Z,2.20
2023-04-30T14:44:53.752Z,1.90
2023-04-30T14:47:27.985Z,1.40
2023-04-30T14:50:02.905Z,1.90
2023-04-30T14:52:34.281Z,2.20
2023-04-30T14:55:08.287Z,2.20
2023-04-30T14:57:39.491Z,1.90
2023-04-30T15:00:12.282Z,1.50
2023-04-30T15:02:43.231Z,1.50
2023-04-30T15:05:51.786Z,1.80
2023-04-30T15:08:27.293Z,1.80
2023-04-30T15:11:18.345Z,1.90
2023-04-30T15:13:51.703Z,1.60
2023-04-30T15:16:22.800Z,1.70
2023-04-30T15:18:54.295Z,1.60
2023-04-30T15:21:25.182Z,1.70
2023-04-30T15:23:59.102Z,2.00
2023-04-30T15:26:30.779Z,1.60
2023-04-30T15:29:01.983Z,1.90
2023-04-30T15:31:33.151Z,1.90
2023-04-30T15:34:03.969Z,1.50
2023-04-30T15:36:35.115Z,1.70
2023-04-30T15:39:06.271Z,2.10
2023-04-30T15:41:39.907Z,2.00
2023-04-30T15:44:10.763Z,1.80
2023-04-30T15:46:42.996Z,1.80
2023-04-30T15:49:14.449Z,2.00
2023-04-30T15:51:48.422Z,1.50
2023-04-30T15:54:23.498Z,1.80
2023-04-30T15:56:55.051Z,1.90
2023-04-30T15:59:27.659Z,2.00
2023-04-30T16:02:05.373Z,1.70
2023-04-30T16:04:36.470Z,1.70
2023-04-30T16:07:07.521Z,2.00
2023-04-30T16:09:39.097Z,1.70
2023-04-30T16:12:09.955Z,2.40
2023-04-30T16:14:43.564Z,1.80
2023-04-30T16:17:14.402Z,1.60
2023-04-30T16:19:45.203Z,2.10
2023-04-30T16:22:17.361Z,2.00
2023-04-30T16:24:48.255Z,3.30
2023-04-30T16:27:19.039Z,2.80
2023-04-30T16:29:50.183Z,2.70
2023-04-30T16:32:20.980Z,2.80
2023-04-30T16:34:53.511Z,2.00
2023-04-30T16:37:24.524Z,2.20
2023-04-30T16:40:03.575Z,2.20
2023-04-30T16:42:34.858Z,2.50
2023-04-30T16:45:09.691Z,2.10
2023-04-30T16:47:40.809Z,3.50
2023-04-30T16:50:18.484Z,1.70
2023-04-30T16:52:49.221Z,2.10
2023-04-30T16:55:20.443Z,1.90
2023-04-30T16:57:54.528Z,1.60
2023-04-30T17:00:25.395Z,2.20
2023-04-30T17:02:56.353Z,2.10
2023-04-30T17:05:27.275Z,2.00
2023-04-30T17:07:58.369Z,2.00
2023-04-30T17:10:31.040Z,2.00
2023-04-30T17:13:14.942Z,1.80
2023-04-30T17:15:48.803Z,1.80
2023-04-30T17:18:19.928Z,2.40
2023-04-30T17:20:52.436Z,2.00
2023-04-30T17:23:23.376Z,2.20
2023-04-30T17:25:54.665Z,2.60
2023-04-30T17:28:26.116Z,1.70
2023-04-30T17:30:58.141Z,1.70
2023-04-30T17:33:29.716Z,2.00
2023-04-30T17:36:00.572Z,2.60
2023-04-30T17:38:31.458Z,2.40
2023-04-30T17:41:02.368Z,2.30
2023-04-30T17:43:35.383Z,2.10
2023-04-30T17:46:06.262Z,2.30
2023-04-30T17:48:37.209Z,2.30
2023-04-30T17:51:08.078Z,2.00
2023-04-30T17:53:39.364Z,2.50
2023-04-30T17:56:10.594Z,2.20
2023-04-30T17:58:41.539Z,2.20
2023-04-30T18:01:13.459Z,1.90
2023-04-30T18:03:44.486Z,2.50
2023-04-30T18:06:16.114Z,2.40
2023-04-30T18:08:49.483Z,2.40
2023-04-30T18:11:20.197Z,2.50
2023-04-30T18:13:51.440Z,2.30
2023-04-30T18:16:22.767Z,2.10
2023-04-30T18:18:53.618Z,2.50
2023-04-30T18:21:25.596Z,2.70
2023-04-30T18:23:56.698Z,2.50
2023-04-30T18:26:28.200Z,2.90
2023-04-30T18:28:59.128Z,2.30
2023-04-30T18:31:30.797Z,2.70
2023-04-30T18:34:01.946Z,2.40
2023-04-30T18:36:32.843Z,3.10
2023-04-30T18:39:27.775Z,2.50
2023-04-30T18:41:58.607Z,2.60
2023-04-30T18:44:33.389Z,2.60
2023-04-30T18:47:09.345Z,3.00
2023-04-30T18:49:41.453Z,3.60
2023-04-30T18:52:12.370Z,3.10
2023-04-30T18:54:43.247Z,3.20
2023-04-30T18:57:16.516Z,3.70
2023-04-30T18:59:48.626Z,3.50
2023-04-30T19:02:19.745Z,3.60
2023-04-30T19:04:50.670Z,3.60
2023-04-30T19:07:21.564Z,4.00
2023-04-30T19:09:53.777Z,3.70
2023-04-30T19:12:29.076Z,3.90
2023-04-30T19:15:00.901Z,4.10
2023-04-30T19:17:31.786Z,3.90
2023-04-30T19:20:02.876Z,3.80
2023-04-30T19:22:33.734Z,4.00
2023-04-30T19:25:04.838Z,3.90
2023-04-30T19:27:35.638Z,3.00
2023-04-30T19:30:12.146Z,3.90
2023-04-30T19:32:43.177Z,3.40
2023-04-30T19:35:14.387Z,3.60
2023-04-30T19:37:45.681Z,3.60
2023-04-30T19:40:18.483Z,5.10
2023-04-30T19:42:49.311Z,3.90
2023-04-30T19:45:20.479Z,4.30
2023-04-30T19:47:51.321Z,3.60
2023-04-30T19:50:22.262Z,3.70
2023-04-30T19:52:54.308Z,3.90
2023-04-30T19:55:25.093Z,4.40
2023-04-30T19:57:55.994Z,4.20
2023-04-30T20:00:26.842Z,4.70
2023-04-30T20:02:57.767Z,4.20
2023-04-30T20:05:28.713Z,4.50
2023-04-30T20:08:00.169Z,4.90
2023-04-30T20:10:30.935Z,4.00
2023-04-30T20:13:01.814Z,4.40
2023-04-30T20:15:56.689Z,4.60
2023-04-30T20:18:33.535Z,4.30
2023-04-30T20:21:07.422Z,4.50
2023-04-30T20:23:40.784Z,5.70
2023-04-30T20:26:11.933Z,4.70
2023-04-30T20:28:44.203Z,4.60
2023-04-30T20:31:15.353Z,4.90
2023-04-30T20:33:46.864Z,6.00
2023-04-30T20:36:18.356Z,5.50
2023-04-30T20:38:49.245Z,5.50
2023-04-30T20:41:22.663Z,5.30
2023-04-30T20:43:54.168Z,6.30
2023-04-30T20:46:25.397Z,5.50
2023-04-30T20:49:03.987Z,4.60
2023-04-30T20:51:34.819Z,5.70
2023-04-30T20:54:05.865Z,5.90
2023-04-30T20:56:36.759Z,5.60
2023-04-30T20:59:09.897Z,5.70
2023-04-30T21:01:42.025Z,4.80
2023-04-30T21:04:19.268Z,5.70
2023-04-30T21:06:50.144Z,5.00
2023-04-30T21:09:24.183Z,5.80
2023-04-30T21:11:55.213Z,5.30
2023-04-30T21:14:26.024Z,5.80
2023-04-30T21:16:57.079Z,5.20
2023-04-30T21:19:28.076Z,5.70
2023-04-30T21:22:00.927Z,5.70
2023-04-30T21:24:34.303Z,4.90
2023-04-30T21:27:05.510Z,6.00
2023-04-30T21:29:36.855Z,6.40
2023-04-30T21:32:08.301Z,5.70
2023-04-30T21:34:39.345Z,5.80
2023-04-30T21:37:17.257Z,6.50
2023-04-30T21:39:48.405Z,6.10
2023-04-30T21:42:19.235Z,5.30
2023-04-30T21:44:50.565Z,7.00
2023-04-30T21:47:21.417Z,6.00
2023-04-30T21:49:52.168Z,6.50
2023-04-30T21:52:22.959Z,7.00
2023-04-30T21:54:53.823Z,6.40
2023-04-30T21:57:24.664Z,6.70
2023-04-30T21:59:55.626Z,7.30
2023-04-30T22:02:26.703Z,8.20
2023-04-30T22:04:57.743Z,7.70
2023-04-30T22:07:28.542Z,6.60
2023-04-30T22:09:59.597Z,7.50
2023-04-30T22:12:30.363Z,8.10
2023-04-30T22:15:01.836Z,7.60
2023-04-30T22:17:32.755Z,7.50
2023-04-30T22:20:03.898Z,8.00
2023-04-30T22:22:34.679Z,7.40
2023-04-30T22:25:05.913Z,6.80
2023-04-30T22:27:36.809Z,7.20
2023-04-30T22:30:09.400Z,7.30
2023-04-30T22:32:40.222Z,7.20
2023-04-30T22:35:12.636Z,7.40
2023-04-30T22:37:43.676Z,7.40
2023-04-30T22:40:15.613Z,6.60
2023-04-30T22:42:46.542Z,7.00
2023-04-30T22:45:17.819Z,7.10
2023-04-30T22:47:48.902Z,6.70
2023-04-30T22:50:19.918Z,6.40
2023-04-30T22:52:50.995Z,5.80
2023-04-30T22:55:21.859Z,5.80
2023-04-30T22:57:52.655Z,6.60
2023-04-30T23:00:24.159Z,6.90
2023-04-30T23:02:55.018Z,6.80
2023-04-30T23:05:26.380Z,6.80
2023-04-30T23:07:57.197Z,5.90
2023-04-30T23:10:28.109Z,6.10
2023-04-30T23:12:59.098Z,6.10
2023-04-30T23:15:29.897Z,5.80
2023-04-30T23:18:01.274Z,6.00
2023-04-30T23:20:32.223Z,6.50
2023-04-30T23:23:02.949Z,6.50
2023-04-30T23:25:33.836Z,5.70
2023-04-30T23:28:05.152Z,6.10
2023-04-30T23:30:38.395Z,6.00
2023-04-30T23:33:09.199Z,5.80
2023-04-30T23:35:42.431Z,6.10
2023-04-30T23:38:13.252Z,6.10
2023-04-30T23:40:44.842Z,6.00
2023-04-30T23:43:15.532Z,6.50
2023-04-30T23:45:46.332Z,6.40
2023-04-30T23:48:17.243Z,5.50
2023-04-30T23:50:48.103Z,6.00
2023-04-30T23:53:18.932Z,5.80
2023-04-30T23:55:49.701Z,5.10
2023-04-30T23:58:20.440Z,5.60
